Hurricane, Utah
Current Conditions -  °F | °C
As of 11:55 AM on Friday 31 Oct 2014 (Local Time) from KSGU Reporting Station
Clear Clear  
Wind Chill: 70°   Ceiling: Unl
Heat Index: 70°   Visibility: 10mi
Dew Point: 28°   Wind: 5mph
Humidity: 21%   Direction: 300°WNW
Pressure: 30"   Gusts: NA
Location:  37.18°N, 113.29°W
Report Text: KSGU 311755Z AUTO 30004KT 10SM CLR 21/M02 A3000 RMK AO1 10210 20110 57010
Loading
Personal Weather Stations






























Interactive Weather Map
Tropical Storm Tracking
New forecast layout! Learn more

10-Day Weather Forecast

Advertisements
Track Severe Weather on mobile